KCJR

Culpeper Regional Airport

Culpeper, Virginia, USA
METAR KCJR 221455Z AUTO 22006KT 10SM OVC009 22/19 A3011 RMK AO2 T02200191
Observed Flight Rules
May-22 @ 14:55 UTC (34 minutes ago) Instrument Flight Rules
Wind Visibility Clouds
220° at 6 knots 10 miles
  • Overcast at 900' AGL
Temperatures Readings
Current 22°C / 72°F
Dewpoint 19°C / 66°F
Humidity 83%
Altimeter 30.11" Hg
Pressure 1020 hPa
Elevation 97
METAR KCJR 221455Z AUTO 22006KT 10SM OVC009 22/19 A3011 RMK AO2 T02200191
Observed Flight Rules
May-22 @ 14:55 UTC
(34 minutes ago)
IFR
Wind Visibility
220° at 6 knots 10 miles
Clouds
  • Overcast at 900' AGL
Temperature Dewpoint
22°C / 72°F 19°C / 66°F
Humidity Altimeter Pressure
83% 30.11" Hg 1020 hPa